Accueil
METAR-TAF:

METAR-TAF

Aéroports :

Buochs, Suisse

latitude: 46-58-28N, longitude: 8-23-49E, altitude: 449 m

Observation

Le bulletin a été fait il y a 10 minutes, à 15:20 UTC
Vent 3 kt de direction variable
Température 1°C
Humidité 80%
Pression 1018 hPa
Visibilité: 8000 m
Ciel couvert à une hauteur de 1700 ft

METAR: LSZC 211520Z AUTO VRB03KT 8000 OVC017 01/M02 Q1018

Heure: 16:30 (15:30 UTC)

Prévision

Le bulletin a été fait il y a 1 heure et 5 minutes, à 14:25 UTC
Prévision valable du 21 à 15 UTC au 21 à 24 UTC
Vent 3 kt de direction variable
Visibilité: 7000 m
Ciel couvert à une hauteur de 1700 ft
Probabilité 40%
du 21 à 18 UTC au 21 à 24 UTC
Visibilité: 4000 m
Nuages fragmentés à une hauteur de 1200 ft
brume

TAF: LSZC 211425Z 2115/2124 VRB03KT 7000 OVC017 PROB40 2118/2124 4000 BR BKN012

Observations et prévisions météorologiques de plus de 4000 aéroports (messages METAR et TAF).

Les stations disponibles sont représentées par des disques jaunes et rouges sur la carte.

Passer la souris dessus pour voir le nom de la station.

Cliquer dessus pour voir les observations et prévisions météorologiques.

Pour changer de carte: cliquez sur les boutons verts avec une croix noire pour zoomer, sur le bouton vert avec un tiret pour effectuer un zoom arrière, ou sur les flèches vertes pour les cartes adjacentes.


METAR-TAF: